createdAt,value
2023-04-15T00:00:37.354Z,61.35
2023-04-15T00:01:37.459Z,59.10
2023-04-15T00:02:37.491Z,58.82
2023-04-15T00:03:38.364Z,58.45
2023-04-15T00:04:37.338Z,58.53
2023-04-15T00:05:37.333Z,57.84
2023-04-15T00:06:37.296Z,57.25
2023-04-15T00:07:37.304Z,57.18
2023-04-15T00:08:37.292Z,57.96
2023-04-15T00:09:37.269Z,59.40
2023-04-15T00:10:37.230Z,60.86
2023-04-15T00:11:38.722Z,62.12
2023-04-15T00:12:37.337Z,63.38
2023-04-15T00:13:37.216Z,63.87
2023-04-15T00:14:37.180Z,64.95
2023-04-15T00:15:38.130Z,66.86
2023-04-15T00:16:37.249Z,68.27
2023-04-15T00:17:37.192Z,69.92
2023-04-15T00:18:37.139Z,72.20
2023-04-15T00:19:37.147Z,74.18
2023-04-15T00:20:37.229Z,75.99
2023-04-15T00:21:37.219Z,77.67
2023-04-15T00:22:37.097Z,80.19
2023-04-15T00:23:37.104Z,82.31
2023-04-15T00:24:37.061Z,84.04
2023-04-15T00:25:37.102Z,85.67
2023-04-15T00:26:37.057Z,86.82
2023-04-15T00:27:37.309Z,87.00
2023-04-15T00:28:37.047Z,87.00
2023-04-15T00:29:37.035Z,87.18
2023-04-15T00:30:37.031Z,87.18
2023-04-15T00:31:37.019Z,87.27
2023-04-15T00:32:37.028Z,88.09
2023-04-15T00:33:37.104Z,87.91
2023-04-15T00:34:36.964Z,87.54
2023-04-15T00:35:37.417Z,87.36
2023-04-15T00:36:37.419Z,86.29
2023-04-15T00:37:36.931Z,85.32
2023-04-15T00:38:36.922Z,84.63
2023-04-15T00:39:36.910Z,83.71
2023-04-15T00:40:36.890Z,83.54
2023-04-15T00:41:36.890Z,82.15
2023-04-15T00:42:36.855Z,81.60
2023-04-15T00:43:37.108Z,80.65
2023-04-15T00:44:36.837Z,79.36
2023-04-15T00:45:36.870Z,77.32
2023-04-15T00:46:36.822Z,75.11
2023-04-15T00:47:36.839Z,72.96
2023-04-15T00:48:36.784Z,71.41
2023-04-15T00:49:36.813Z,70.27
2023-04-15T00:50:36.780Z,68.95
2023-04-15T00:51:38.238Z,68.61
2023-04-15T00:52:36.781Z,68.83
2023-04-15T00:53:36.749Z,68.95
2023-04-15T00:54:37.451Z,69.23
2023-04-15T00:55:38.166Z,69.52
2023-04-15T00:56:36.699Z,70.39
2023-04-15T00:57:36.759Z,71.53
2023-04-15T00:58:36.700Z,72.39
2023-04-15T00:59:38.147Z,73.34
2023-04-15T01:00:36.664Z,74.11
2023-04-15T01:01:37.609Z,73.98
2023-04-15T01:02:36.975Z,73.79
2023-04-15T01:03:36.768Z,73.21
2023-04-15T01:04:36.686Z,72.39
2023-04-15T01:05:36.613Z,71.96
2023-04-15T01:06:36.589Z,71.35
2023-04-15T01:07:36.589Z,71.16
2023-04-15T01:08:36.546Z,71.16
2023-04-15T01:09:36.577Z,70.92
2023-04-15T01:10:36.559Z,70.63
2023-04-15T01:11:36.559Z,70.51
2023-04-15T01:12:36.513Z,70.68
2023-04-15T01:13:37.972Z,70.04
2023-04-15T01:14:36.502Z,70.10
2023-04-15T01:15:36.520Z,69.98
2023-04-15T01:16:36.562Z,69.86
2023-04-15T01:17:36.489Z,69.57
2023-04-15T01:18:36.432Z,68.44
2023-04-15T01:19:36.502Z,66.02
2023-04-15T01:20:36.575Z,63.24
2023-04-15T01:21:36.411Z,59.91
2023-04-15T01:22:36.408Z,56.56
2023-04-15T01:23:36.409Z,52.96
2023-04-15T01:24:36.378Z,49.97
2023-04-15T01:25:36.381Z,47.14
2023-04-15T01:26:36.336Z,45.39
2023-04-15T01:27:36.350Z,44.33
2023-04-15T01:28:36.325Z,43.78
2023-04-15T01:29:36.345Z,42.93
2023-04-15T01:30:36.290Z,41.62
2023-04-15T01:31:36.352Z,40.53
2023-04-15T01:32:36.300Z,39.32
2023-04-15T01:33:37.718Z,38.25
2023-04-15T01:34:36.298Z,37.30
2023-04-15T01:35:36.264Z,36.46
2023-04-15T01:36:36.220Z,36.11
2023-04-15T01:37:36.248Z,36.43
2023-04-15T01:38:36.198Z,37.33
2023-04-15T01:39:37.701Z,38.11
2023-04-15T01:40:36.277Z,39.32
2023-04-15T01:41:36.263Z,40.61
2023-04-15T01:42:36.157Z,42.37
2023-04-15T01:43:36.334Z,43.69
2023-04-15T01:44:36.152Z,44.71
2023-04-15T01:45:36.125Z,45.53
2023-04-15T01:46:36.346Z,45.48
2023-04-15T01:47:36.145Z,45.09
2023-04-15T01:48:36.089Z,44.81
2023-04-15T01:49:37.548Z,44.06
2023-04-15T01:50:36.057Z,43.55
2023-04-15T01:51:36.072Z,42.58
2023-04-15T01:52:36.042Z,41.01
2023-04-15T01:53:36.049Z,40.03
2023-04-15T01:54:36.041Z,39.28
2023-04-15T01:55:36.328Z,38.56
2023-04-15T01:56:36.006Z,39.06
2023-04-15T01:57:36.011Z,39.39
2023-04-15T01:58:37.464Z,39.54
2023-04-15T01:59:35.981Z,40.07
2023-04-15T02:00:36.360Z,40.18
2023-04-15T02:01:35.951Z,40.69
2023-04-15T02:02:36.052Z,41.70
2023-04-15T02:03:37.463Z,42.37
2023-04-15T02:04:35.969Z,42.80
2023-04-15T02:05:36.342Z,43.46
2023-04-15T02:06:35.900Z,44.06
2023-04-15T02:07:36.344Z,44.52
2023-04-15T02:08:35.869Z,44.29
2023-04-15T02:09:35.866Z,44.06
2023-04-15T02:10:36.361Z,43.11
2023-04-15T02:11:36.345Z,42.24
2023-04-15T02:12:35.828Z,41.21
2023-04-15T02:13:37.249Z,40.34
2023-04-15T02:14:35.826Z,39.51
2023-04-15T02:15:35.773Z,38.21
2023-04-15T02:16:35.844Z,37.10
2023-04-15T02:17:35.864Z,36.43
2023-04-15T02:18:35.748Z,35.69
2023-04-15T02:19:36.000Z,35.42
2023-04-15T02:20:35.738Z,35.09
2023-04-15T02:21:35.853Z,35.06
2023-04-15T02:22:35.705Z,34.66
2023-04-15T02:23:35.676Z,34.26
2023-04-15T02:24:35.679Z,33.88
2023-04-15T02:25:35.822Z,33.50
2023-04-15T02:26:35.655Z,33.26
2023-04-15T02:27:35.634Z,33.05
2023-04-15T02:28:35.641Z,32.90
2023-04-15T02:29:35.623Z,32.87
2023-04-15T02:30:35.626Z,32.95
2023-04-15T02:31:35.614Z,33.15
2023-04-15T02:32:35.618Z,33.42
2023-04-15T02:33:35.563Z,33.58
2023-04-15T02:34:35.599Z,33.88
2023-04-15T02:35:35.630Z,34.10
2023-04-15T02:36:35.546Z,34.18
2023-04-15T02:37:35.515Z,34.35
2023-04-15T02:38:35.534Z,34.69
2023-04-15T02:39:35.485Z,35.15
2023-04-15T02:40:35.511Z,35.75
2023-04-15T02:41:35.473Z,36.49
2023-04-15T02:42:35.479Z,37.56
2023-04-15T02:43:35.647Z,38.42
2023-04-15T02:44:35.449Z,39.25
2023-04-15T02:45:35.531Z,40.03
2023-04-15T02:46:35.435Z,40.57
2023-04-15T02:47:35.439Z,40.49
2023-04-15T02:48:35.418Z,40.30
2023-04-15T02:49:35.373Z,40.93
2023-04-15T02:50:35.575Z,41.57
2023-04-15T02:51:35.665Z,41.95
2023-04-15T02:52:35.368Z,42.33
2023-04-15T02:53:35.643Z,42.20
2023-04-15T02:54:35.339Z,42.93
2023-04-15T02:55:35.319Z,44.10
2023-04-15T02:56:35.301Z,45.24
2023-04-15T02:57:35.289Z,46.44
2023-04-15T02:58:35.293Z,47.01
2023-04-15T02:59:36.745Z,47.09
2023-04-15T03:00:35.298Z,47.11
2023-04-15T03:01:35.282Z,46.85
2023-04-15T03:02:35.391Z,46.54
2023-04-15T03:03:35.312Z,46.13
2023-04-15T03:04:35.214Z,45.58
2023-04-15T03:05:35.219Z,45.24
2023-04-15T03:06:35.201Z,44.57
2023-04-15T03:07:35.453Z,44.38
2023-04-15T03:08:35.167Z,44.15
2023-04-15T03:09:35.148Z,44.01
2023-04-15T03:10:35.171Z,44.38
2023-04-15T03:11:36.377Z,44.10
2023-04-15T03:12:35.139Z,43.92
2023-04-15T03:13:35.118Z,43.83
2023-04-15T03:14:35.105Z,43.42
2023-04-15T03:15:35.143Z,43.37
2023-04-15T03:16:35.068Z,42.89
2023-04-15T03:17:35.144Z,42.58
2023-04-15T03:18:35.053Z,42.41
2023-04-15T03:19:35.121Z,42.07
2023-04-15T03:20:35.125Z,41.78
2023-04-15T03:21:35.009Z,41.25
2023-04-15T03:22:35.048Z,40.97
2023-04-15T03:23:35.280Z,40.93
2023-04-15T03:24:34.985Z,40.61
2023-04-15T03:25:34.974Z,40.89
2023-04-15T03:26:34.962Z,41.17
2023-04-15T03:27:34.957Z,41.05
2023-04-15T03:28:34.948Z,41.13
2023-04-15T03:29:34.908Z,41.41
2023-04-15T03:30:34.934Z,41.70
2023-04-15T03:31:35.000Z,41.86
2023-04-15T03:32:34.968Z,42.07
2023-04-15T03:33:34.888Z,42.33
2023-04-15T03:34:34.878Z,42.12
2023-04-15T03:35:34.869Z,41.90
2023-04-15T03:36:34.852Z,41.37
2023-04-15T03:37:34.821Z,40.69
2023-04-15T03:38:35.684Z,40.26
2023-04-15T03:39:35.678Z,39.43
2023-04-15T03:40:34.836Z,38.96
2023-04-15T03:41:34.783Z,37.94
2023-04-15T03:42:34.789Z,37.53
2023-04-15T03:43:34.768Z,36.68
2023-04-15T03:44:34.773Z,35.96
2023-04-15T03:45:34.736Z,35.30
2023-04-15T03:46:35.717Z,34.63
2023-04-15T03:47:35.477Z,33.93
2023-04-15T03:48:36.164Z,33.37
2023-04-15T03:49:34.690Z,32.87
2023-04-15T03:50:34.700Z,32.34
2023-04-15T03:51:34.674Z,31.73
2023-04-15T03:52:34.688Z,31.28
2023-04-15T03:53:34.646Z,30.91
2023-04-15T03:54:36.127Z,30.69
2023-04-15T03:55:34.631Z,30.23
2023-04-15T03:56:34.637Z,30.38
2023-04-15T03:57:34.595Z,29.82
2023-04-15T03:58:34.598Z,29.84
2023-04-15T03:59:34.608Z,30.01
2023-04-15T04:00:34.708Z,29.63
2023-04-15T04:01:34.615Z,29.77
2023-04-15T04:02:34.683Z,29.92
2023-04-15T04:03:34.794Z,30.27
2023-04-15T04:04:34.686Z,30.75
2023-04-15T04:05:34.508Z,31.07
2023-04-15T04:06:34.508Z,31.37
2023-04-15T04:07:34.502Z,31.54
2023-04-15T04:08:34.497Z,31.83
2023-04-15T04:09:34.451Z,32.34
2023-04-15T04:10:34.455Z,32.31
2023-04-15T04:11:34.440Z,32.41
2023-04-15T04:12:35.192Z,32.17
2023-04-15T04:13:34.422Z,31.78
2023-04-15T04:14:34.430Z,31.47
2023-04-15T04:15:34.462Z,30.94
2023-04-15T04:16:34.435Z,30.40
2023-04-15T04:17:34.425Z,30.01
2023-04-15T04:18:35.829Z,29.77
2023-04-15T04:19:34.357Z,29.55
2023-04-15T04:20:34.352Z,29.10
2023-04-15T04:21:34.328Z,29.06
2023-04-15T04:22:34.349Z,28.92
2023-04-15T04:23:34.306Z,29.08
2023-04-15T04:24:34.297Z,28.88
2023-04-15T04:25:34.311Z,29.18
2023-04-15T04:26:34.297Z,29.40
2023-04-15T04:27:34.272Z,29.69
2023-04-15T04:28:34.244Z,29.82
2023-04-15T04:29:34.245Z,30.47
2023-04-15T04:30:34.269Z,30.67
2023-04-15T04:31:34.229Z,30.89
2023-04-15T04:32:34.250Z,31.05
2023-04-15T04:33:34.175Z,31.00
2023-04-15T04:34:34.632Z,30.71
2023-04-15T04:35:34.167Z,30.05
2023-04-15T04:36:34.709Z,29.71
2023-04-15T04:37:34.157Z,29.71
2023-04-15T04:38:34.171Z,29.30
2023-04-15T04:39:34.112Z,29.18
2023-04-15T04:40:34.113Z,29.30
2023-04-15T04:41:34.099Z,29.04
2023-04-15T04:42:34.114Z,29.08
2023-04-15T04:43:34.356Z,29.20
2023-04-15T04:44:34.065Z,29.63
2023-04-15T04:45:34.101Z,29.99
2023-04-15T04:46:34.064Z,30.33
2023-04-15T04:47:34.084Z,30.82
2023-04-15T04:48:34.040Z,31.44
2023-04-15T04:49:33.992Z,32.07
2023-04-15T04:50:34.010Z,32.87
2023-04-15T04:51:33.973Z,33.50
2023-04-15T04:52:33.993Z,33.96
2023-04-15T04:53:33.973Z,34.80
2023-04-15T04:54:33.952Z,35.18
2023-04-15T04:55:33.924Z,35.78
2023-04-15T04:56:33.918Z,35.96
2023-04-15T04:57:33.908Z,36.43
2023-04-15T04:58:35.373Z,36.40
2023-04-15T04:59:33.890Z,36.68
2023-04-15T05:00:33.900Z,36.36
2023-04-15T05:01:34.743Z,36.24
2023-04-15T05:02:34.032Z,35.93
2023-04-15T05:03:33.999Z,35.44
2023-04-15T05:04:33.834Z,34.80
2023-04-15T05:05:33.809Z,34.10
2023-04-15T05:06:33.818Z,33.39
2023-04-15T05:07:33.780Z,32.90
2023-04-15T05:08:33.799Z,32.39
2023-04-15T05:09:33.777Z,32.02
2023-04-15T05:10:33.775Z,31.40
2023-04-15T05:11:33.742Z,30.98
2023-04-15T05:12:33.758Z,30.33
2023-04-15T05:13:33.719Z,29.99
2023-04-15T05:14:33.728Z,29.34
2023-04-15T05:15:33.746Z,28.84
2023-04-15T05:16:33.697Z,28.52
2023-04-15T05:17:33.733Z,28.22
2023-04-15T05:18:33.676Z,27.84
2023-04-15T05:19:33.670Z,27.37
2023-04-15T05:20:33.645Z,26.92
2023-04-15T05:21:33.634Z,26.56
2023-04-15T05:22:33.650Z,26.21
2023-04-15T05:23:33.610Z,25.86
2023-04-15T05:24:33.621Z,25.58
2023-04-15T05:25:33.592Z,25.25
2023-04-15T05:26:33.580Z,25.10
2023-04-15T05:27:33.560Z,24.98
2023-04-15T05:28:33.587Z,24.76
2023-04-15T05:29:33.544Z,24.60
2023-04-15T05:30:33.541Z,24.50
2023-04-15T05:31:33.625Z,24.19
2023-04-15T05:32:33.578Z,23.93
2023-04-15T05:33:33.486Z,23.99
2023-04-15T05:34:33.525Z,23.86
2023-04-15T05:35:33.470Z,23.68
2023-04-15T05:36:33.459Z,23.66
2023-04-15T05:37:33.477Z,23.45
2023-04-15T05:38:33.482Z,23.43
2023-04-15T05:39:33.420Z,23.30
2023-04-15T05:40:33.423Z,23.22
2023-04-15T05:41:33.398Z,23.32
2023-04-15T05:42:33.427Z,23.20
2023-04-15T05:43:33.390Z,23.20
2023-04-15T05:44:33.400Z,23.22
2023-04-15T05:45:33.345Z,23.14
2023-04-15T05:46:33.393Z,23.17
2023-04-15T05:47:33.353Z,23.27
2023-04-15T05:48:33.316Z,23.25
2023-04-15T05:49:33.326Z,23.17
2023-04-15T05:50:33.313Z,23.17
2023-04-15T05:51:33.288Z,23.04
2023-04-15T05:52:33.296Z,23.02
2023-04-15T05:53:33.255Z,23.09
2023-04-15T05:54:33.276Z,22.97
2023-04-15T05:55:33.232Z,23.14
2023-04-15T05:56:33.244Z,23.40
2023-04-15T05:57:33.223Z,23.51
2023-04-15T05:58:33.227Z,23.68
2023-04-15T05:59:33.208Z,23.81
2023-04-15T06:00:33.224Z,24.00
2023-04-15T06:01:33.163Z,23.77
2023-04-15T06:02:33.270Z,23.73
2023-04-15T06:03:33.266Z,23.66
2023-04-15T06:04:33.246Z,23.68
2023-04-15T06:05:33.145Z,23.66
2023-04-15T06:06:33.121Z,23.59
2023-04-15T06:07:33.146Z,23.43
2023-04-15T06:08:33.098Z,23.53
2023-04-15T06:09:33.068Z,23.58
2023-04-15T06:10:33.988Z,23.65
2023-04-15T06:11:33.054Z,23.57
2023-04-15T06:12:33.031Z,23.64
2023-04-15T06:13:33.053Z,23.68
2023-04-15T06:14:33.024Z,23.85
2023-04-15T06:15:33.019Z,24.36
2023-04-15T06:16:33.019Z,24.87
2023-04-15T06:17:33.036Z,25.62
2023-04-15T06:18:32.969Z,26.03
2023-04-15T06:19:32.967Z,26.43
2023-04-15T06:20:32.941Z,26.43
2023-04-15T06:21:32.950Z,26.76
2023-04-15T06:22:32.954Z,27.50
2023-04-15T06:23:32.933Z,27.48
2023-04-15T06:24:32.889Z,27.59
2023-04-15T06:25:32.902Z,27.32
2023-04-15T06:26:33.450Z,27.41
2023-04-15T06:27:32.876Z,27.30
2023-04-15T06:28:32.864Z,27.41
2023-04-15T06:29:32.854Z,27.14
2023-04-15T06:30:32.837Z,27.16
2023-04-15T06:31:32.860Z,27.11
2023-04-15T06:32:32.870Z,27.16
2023-04-15T06:33:32.800Z,27.13
2023-04-15T06:34:32.809Z,26.76
2023-04-15T06:35:32.782Z,26.58
2023-04-15T06:36:32.756Z,26.46
2023-04-15T06:37:32.770Z,26.41
2023-04-15T06:38:32.747Z,26.28
2023-04-15T06:39:32.743Z,26.34
2023-04-15T06:40:32.705Z,26.48
2023-04-15T06:41:32.718Z,27.06
2023-04-15T06:42:32.715Z,27.92
2023-04-15T06:43:32.692Z,28.72
2023-04-15T06:44:34.102Z,30.07
2023-04-15T06:45:32.668Z,31.23
2023-04-15T06:46:32.825Z,33.00
2023-04-15T06:47:32.701Z,35.09
2023-04-15T06:48:32.622Z,37.20
2023-04-15T06:49:34.084Z,39.21
2023-04-15T06:50:32.827Z,41.21
2023-04-15T06:51:32.736Z,43.06
2023-04-15T06:52:33.288Z,44.57
2023-04-15T06:53:32.592Z,45.78
2023-04-15T06:54:32.597Z,48.53
2023-04-15T06:55:32.620Z,51.82
2023-04-15T06:56:32.637Z,54.51
2023-04-15T06:57:34.526Z,54.15
2023-04-15T06:58:32.660Z,52.40
2023-04-15T06:59:32.686Z,53.13
2023-04-15T07:00:32.487Z,55.70
2023-04-15T07:01:32.543Z,59.27
2023-04-15T07:02:32.613Z,61.89
2023-04-15T07:03:33.000Z,65.10
2023-04-15T07:04:32.511Z,67.67
2023-04-15T07:05:33.892Z,70.04
2023-04-15T07:06:32.639Z,75.11
2023-04-15T07:07:32.436Z,79.36
2023-04-15T07:08:32.704Z,84.13
2023-04-15T07:09:32.409Z,84.72
2023-04-15T07:10:32.783Z,81.99
2023-04-15T07:11:32.351Z,83.21
2023-04-15T07:12:32.343Z,86.82
2023-04-15T07:13:32.384Z,91.15
2023-04-15T07:14:32.306Z,94.32
2023-04-15T07:15:32.348Z,95.58
2023-04-15T07:16:32.308Z,95.31
2023-04-15T07:17:32.330Z,93.98
2023-04-15T07:18:32.284Z,97.58
2023-04-15T07:19:32.268Z,100.25
2023-04-15T07:20:32.243Z,102.45
2023-04-15T07:21:32.253Z,105.94
2023-04-15T07:22:32.535Z,109.67
2023-04-15T07:23:32.226Z,115.55
2023-04-15T07:24:32.200Z,115.47
2023-04-15T07:25:32.228Z,113.37
2023-04-15T07:26:32.163Z,114.45
2023-04-15T07:27:32.201Z,115.39
2023-04-15T07:28:32.149Z,119.58
2023-04-15T07:29:32.171Z,127.37
2023-04-15T07:30:32.860Z,132.17
2023-04-15T07:31:32.204Z,137.02
2023-04-15T07:32:32.188Z,142.72
2023-04-15T07:33:32.117Z,146.32
2023-04-15T07:34:32.748Z,149.98
2023-04-15T07:35:32.423Z,155.53
2023-04-15T07:36:32.057Z,159.66
2023-04-15T07:37:32.873Z,161.04
2023-04-15T07:38:32.048Z,165.15
2023-04-15T07:39:32.033Z,166.96
2023-04-15T07:40:32.028Z,168.63
2023-04-15T07:41:32.017Z,169.82
2023-04-15T07:42:32.011Z,172.61
2023-04-15T07:43:32.027Z,173.15
2023-04-15T07:44:31.956Z,176.23
2023-04-15T07:45:31.956Z,179.05
2023-04-15T07:46:31.984Z,182.35
2023-04-15T07:47:31.961Z,186.18
2023-04-15T07:48:33.713Z,189.38
2023-04-15T07:49:31.916Z,192.47
2023-04-15T07:50:31.898Z,196.35
2023-04-15T07:51:31.900Z,202.99
2023-04-15T07:52:31.867Z,204.62
2023-04-15T07:53:31.890Z,206.79
2023-04-15T07:54:31.848Z,210.08
2023-04-15T07:55:31.871Z,213.89
2023-04-15T07:56:31.827Z,215.98
2023-04-15T07:57:31.848Z,217.83
2023-04-15T07:58:31.817Z,216.83
2023-04-15T07:59:31.805Z,215.70
2023-04-15T08:00:31.809Z,216.55
2023-04-15T08:01:31.782Z,217.98
2023-04-15T08:02:31.865Z,219.13
2023-04-15T08:03:31.890Z,223.28
2023-04-15T08:04:31.855Z,225.10
2023-04-15T08:05:31.730Z,226.33
2023-04-15T08:06:31.690Z,225.26
2023-04-15T08:07:31.749Z,226.49
2023-04-15T08:08:31.725Z,224.95
2023-04-15T08:09:31.684Z,222.98
2023-04-15T08:10:31.654Z,220.15
2023-04-15T08:11:31.650Z,218.84
2023-04-15T08:12:31.639Z,217.83
2023-04-15T08:13:31.682Z,219.57
2023-04-15T08:14:31.604Z,221.63
2023-04-15T08:15:31.626Z,217.55
2023-04-15T08:16:31.581Z,215.84
2023-04-15T08:17:31.604Z,213.20
2023-04-15T08:18:31.574Z,214.30
2023-04-15T08:19:31.580Z,207.44
2023-04-15T08:20:31.569Z,202.61
2023-04-15T08:21:31.536Z,203.99
2023-04-15T08:22:31.496Z,203.74
2023-04-15T08:23:31.514Z,199.92
2023-04-15T08:24:31.511Z,197.53
2023-04-15T08:25:31.496Z,195.43
2023-04-15T08:26:31.457Z,196.24
2023-04-15T08:27:31.474Z,197.65
2023-04-15T08:28:31.456Z,199.19
2023-04-15T08:29:31.477Z,202.37
2023-04-15T08:30:31.422Z,206.67
2023-04-15T08:31:31.456Z,212.65
2023-04-15T08:32:31.405Z,210.35
2023-04-15T08:33:31.411Z,209.02
2023-04-15T08:34:31.375Z,208.23
2023-04-15T08:35:31.370Z,208.23
2023-04-15T08:36:31.359Z,208.89
2023-04-15T08:37:31.357Z,212.24
2023-04-15T08:38:31.323Z,216.12
2023-04-15T08:39:31.332Z,219.57
2023-04-15T08:40:31.299Z,230.12
2023-04-15T08:41:31.283Z,231.89
2023-04-15T08:42:31.273Z,230.28
2023-04-15T08:43:31.268Z,231.40
2023-04-15T08:44:31.280Z,239.97
2023-04-15T08:45:31.245Z,251.28
2023-04-15T08:46:31.265Z,256.75
2023-04-15T08:47:31.270Z,257.95
2023-04-15T08:48:31.198Z,264.77
2023-04-15T08:49:31.231Z,268.42
2023-04-15T08:50:31.183Z,270.62
2023-04-15T08:51:31.170Z,272.40
2023-04-15T08:52:31.158Z,275.58
2023-04-15T08:53:31.162Z,284.11
2023-04-15T08:54:31.148Z,292.14
2023-04-15T08:55:31.195Z,299.01
2023-04-15T08:56:31.111Z,303.12
2023-04-15T08:57:31.200Z,303.68
2023-04-15T08:58:31.085Z,303.12
2023-04-15T08:59:31.118Z,300.92
2023-04-15T09:00:31.057Z,306.50
2023-04-15T09:01:31.075Z,301.47
2023-04-15T09:02:31.169Z,300.37
2023-04-15T09:03:31.074Z,307.35
2023-04-15T09:04:31.336Z,309.37
2023-04-15T09:05:31.012Z,312.29
2023-04-15T09:06:31.010Z,314.97
2023-04-15T09:07:30.992Z,316.78
2023-04-15T09:08:30.986Z,317.08
2023-04-15T09:09:31.923Z,318.30
2023-04-15T09:10:30.948Z,325.83
2023-04-15T09:11:30.944Z,332.05
2023-04-15T09:12:30.914Z,339.90
2023-04-15T09:13:30.942Z,347.40
2023-04-15T09:14:30.907Z,353.35
2023-04-15T09:15:30.934Z,355.63
2023-04-15T09:16:30.912Z,361.86
2023-04-15T09:17:31.041Z,363.05
2023-04-15T09:18:30.855Z,367.08
2023-04-15T09:19:30.852Z,367.08
2023-04-15T09:20:30.836Z,367.90
2023-04-15T09:21:30.839Z,372.04
2023-04-15T09:22:30.791Z,393.80
2023-04-15T09:23:30.811Z,404.71
2023-04-15T09:24:30.803Z,426.56
2023-04-15T09:25:32.812Z,455.17
2023-04-15T09:26:30.795Z,480.56
2023-04-15T09:27:30.798Z,514.81
2023-04-15T09:28:30.734Z,539.62
2023-04-15T09:29:30.722Z,565.99
2023-04-15T09:30:30.757Z,577.67
2023-04-15T09:31:30.739Z,594.01
2023-04-15T09:32:30.703Z,593.49
2023-04-15T09:33:30.814Z,590.88
2023-04-15T09:34:30.650Z,577.67
2023-04-15T09:35:30.653Z,574.70
2023-04-15T09:36:30.663Z,551.58
2023-04-15T09:37:32.289Z,533.20
2023-04-15T09:38:30.616Z,516.79
2023-04-15T09:39:30.636Z,501.74
2023-04-15T09:40:30.583Z,496.91
2023-04-15T09:41:30.941Z,487.89
2023-04-15T09:42:30.585Z,487.54
2023-04-15T09:43:30.574Z,480.91
2023-04-15T09:44:30.543Z,484.03
2023-04-15T09:45:30.536Z,482.98
2023-04-15T09:46:30.590Z,477.49
2023-04-15T09:47:30.561Z,479.53
2023-04-15T09:48:30.498Z,471.79
2023-04-15T09:49:31.057Z,471.79
2023-04-15T09:50:30.465Z,481.94
2023-04-15T09:51:30.472Z,480.22
2023-04-15T09:52:30.470Z,486.83
2023-04-15T09:53:31.809Z,491.10
2023-04-15T09:54:30.432Z,495.08
2023-04-15T09:55:30.447Z,497.65
2023-04-15T09:56:30.397Z,503.24
2023-04-15T09:57:30.419Z,500.99
2023-04-15T09:58:30.392Z,516.79
2023-04-15T09:59:30.381Z,524.05
2023-04-15T10:00:30.351Z,524.86
2023-04-15T10:01:30.405Z,526.92
2023-04-15T10:02:30.452Z,510.89
2023-04-15T10:03:30.637Z,513.24
2023-04-15T10:04:30.923Z,526.92
2023-04-15T10:05:30.331Z,534.04
2023-04-15T10:06:30.307Z,540.49
2023-04-15T10:07:30.332Z,551.58
2023-04-15T10:08:30.278Z,557.07
2023-04-15T10:09:30.258Z,566.47
2023-04-15T10:10:30.238Z,578.66
2023-04-15T10:11:31.583Z,590.88
2023-04-15T10:12:30.227Z,602.54
2023-04-15T10:13:30.227Z,612.42
2023-04-15T10:14:30.199Z,620.34
2023-04-15T10:15:31.713Z,635.60
2023-04-15T10:16:30.201Z,660.60
2023-04-15T10:17:31.802Z,690.47
2023-04-15T10:18:30.506Z,720.84
2023-04-15T10:19:30.141Z,730.25
2023-04-15T10:20:30.125Z,750.14
2023-04-15T10:21:30.136Z,777.46
2023-04-15T10:22:30.128Z,808.78
2023-04-15T10:23:30.773Z,823.13
2023-04-15T10:24:30.090Z,845.91
2023-04-15T10:25:30.076Z,862.18
2023-04-15T10:26:30.056Z,875.65
2023-04-15T10:27:30.101Z,876.79
2023-04-15T10:28:30.048Z,877.36
2023-04-15T10:29:30.019Z,861.63
2023-04-15T10:30:30.030Z,857.78
2023-04-15T10:31:30.054Z,865.51
2023-04-15T10:32:30.080Z,872.24
2023-04-15T10:33:30.002Z,879.66
2023-04-15T10:34:29.989Z,890.14
2023-04-15T10:35:29.958Z,889.55
2023-04-15T10:36:29.948Z,888.38
2023-04-15T10:37:29.931Z,889.55
2023-04-15T10:38:29.942Z,895.47
2023-04-15T10:39:29.891Z,899.66
2023-04-15T10:40:29.899Z,887.20
2023-04-15T10:41:29.890Z,874.51
2023-04-15T10:42:29.893Z,878.51
2023-04-15T10:43:29.857Z,881.97
2023-04-15T10:44:29.881Z,886.62
2023-04-15T10:45:29.825Z,890.14
2023-04-15T10:46:29.862Z,887.79
2023-04-15T10:47:29.822Z,891.32
2023-04-15T10:48:29.822Z,900.87
2023-04-15T10:49:29.788Z,903.29
2023-04-15T10:50:29.816Z,903.29
2023-04-15T10:51:29.768Z,899.66
2023-04-15T10:52:29.774Z,904.51
2023-04-15T10:53:29.750Z,905.11
2023-04-15T10:54:29.756Z,902.68
2023-04-15T10:55:29.706Z,900.27
2023-04-15T10:56:29.715Z,889.55
2023-04-15T10:57:29.703Z,887.20
2023-04-15T10:58:29.692Z,889.55
2023-04-15T10:59:29.681Z,879.66
2023-04-15T11:00:29.660Z,868.30
2023-04-15T11:01:29.678Z,873.94
2023-04-15T11:02:29.897Z,876.79
2023-04-15T11:03:29.766Z,873.94
2023-04-15T11:04:29.683Z,875.08
2023-04-15T11:05:29.602Z,887.20
2023-04-15T11:06:29.602Z,882.55
2023-04-15T11:07:29.573Z,873.38
2023-04-15T11:08:29.578Z,876.79
2023-04-15T11:09:29.548Z,862.73
2023-04-15T11:10:29.544Z,867.18
2023-04-15T11:11:29.545Z,865.51
2023-04-15T11:12:29.565Z,867.74
2023-04-15T11:13:29.531Z,882.55
2023-04-15T11:14:29.518Z,888.38
2023-04-15T11:15:29.486Z,891.32
2023-04-15T11:16:29.520Z,892.50
2023-04-15T11:17:29.507Z,899.66
2023-04-15T11:18:29.465Z,899.06
2023-04-15T11:19:29.431Z,896.07
2023-04-15T11:20:29.438Z,884.29
2023-04-15T11:21:29.391Z,865.51
2023-04-15T11:22:29.423Z,858.88
2023-04-15T11:23:29.387Z,858.88
2023-04-15T11:24:29.402Z,848.04
2023-04-15T11:25:29.355Z,845.91
2023-04-15T11:26:29.378Z,848.58
2023-04-15T11:27:29.348Z,838.53
2023-04-15T11:28:29.387Z,830.76
2023-04-15T11:29:29.322Z,820.12
2023-04-15T11:30:29.317Z,808.78
2023-04-15T11:31:29.347Z,796.80
2023-04-15T11:32:29.370Z,778.81
2023-04-15T11:33:29.295Z,772.54
2023-04-15T11:34:29.294Z,778.81
2023-04-15T11:35:29.253Z,783.80
2023-04-15T11:36:29.281Z,796.80
2023-04-15T11:37:29.231Z,787.01
2023-04-15T11:38:29.253Z,785.17
2023-04-15T11:39:29.210Z,768.13
2023-04-15T11:40:29.216Z,759.89
2023-04-15T11:41:29.207Z,750.98
2023-04-15T11:42:39.257Z,760.32
2023-04-15T11:43:30.181Z,752.24
2023-04-15T11:44:29.184Z,747.31
2023-04-15T11:45:29.183Z,737.46
2023-04-15T11:46:29.148Z,722.40
2023-04-15T11:47:29.152Z,703.48
2023-04-15T11:48:29.115Z,699.09
2023-04-15T11:49:29.119Z,691.89
2023-04-15T11:50:29.093Z,688.35
2023-04-15T11:51:29.081Z,689.76
2023-04-15T11:52:29.077Z,696.20
2023-04-15T11:53:29.059Z,695.47
2023-04-15T11:54:29.038Z,693.32
2023-04-15T11:55:29.015Z,691.89
2023-04-15T11:56:29.022Z,690.47
2023-04-15T11:57:29.014Z,691.18
2023-04-15T11:58:29.027Z,678.61
2023-04-15T11:59:38.974Z,673.85
2023-04-15T12:00:29.974Z,667.82
2023-04-15T12:01:28.956Z,665.84
2023-04-15T12:02:29.026Z,654.16
2023-04-15T12:03:29.095Z,645.37
2023-04-15T12:04:29.075Z,645.99
2023-04-15T12:05:28.905Z,631.42
2023-04-15T12:06:28.919Z,618.06
2023-04-15T12:07:28.926Z,612.98
2023-04-15T12:08:28.902Z,602.54
2023-04-15T12:09:29.589Z,599.85
2023-04-15T12:10:28.871Z,591.92
2023-04-15T12:11:28.934Z,588.81
2023-04-15T12:12:28.844Z,578.66
2023-04-15T12:13:28.819Z,574.70
2023-04-15T12:14:28.821Z,565.99
2023-04-15T12:15:28.869Z,561.73
2023-04-15T12:16:28.829Z,559.86
2023-04-15T12:17:28.808Z,557.53
2023-04-15T12:18:28.767Z,552.49
2023-04-15T12:19:28.847Z,544.43
2023-04-15T12:20:28.754Z,544.87
2023-04-15T12:21:28.716Z,545.32
2023-04-15T12:22:28.713Z,546.65
2023-04-15T12:23:28.705Z,544.43
2023-04-15T12:24:30.151Z,540.49
2023-04-15T12:25:28.681Z,544.43
2023-04-15T12:26:29.099Z,540.05
2023-04-15T12:27:29.895Z,540.05
2023-04-15T12:28:28.671Z,532.77
2023-04-15T12:29:28.616Z,532.77
2023-04-15T12:30:28.635Z,533.20
2023-04-15T12:31:28.612Z,531.51
2023-04-15T12:32:28.650Z,534.04
2023-04-15T12:33:28.595Z,540.92
2023-04-15T12:34:28.834Z,542.23
2023-04-15T12:35:28.856Z,535.32
2023-04-15T12:36:28.556Z,542.23
2023-04-15T12:37:28.549Z,540.92
2023-04-15T12:38:28.526Z,533.62
2023-04-15T12:39:30.471Z,523.64
2023-04-15T12:40:28.511Z,522.01
2023-04-15T12:41:28.520Z,528.17
2023-04-15T12:42:28.529Z,528.17